sensor_id;sensor_type;location;lat;lon;timestamp;temperature;humidity
32348;DHT22;18821;44.800;10.326;2023-02-01T00:01:47;3.50;1.00
32348;DHT22;18821;44.800;10.326;2023-02-01T00:04:14;3.60;1.00
32348;DHT22;18821;44.800;10.326;2023-02-01T00:06:40;3.60;1.00
32348;DHT22;18821;44.800;10.326;2023-02-01T00:09:06;3.60;1.00
32348;DHT22;18821;44.800;10.326;2023-02-01T00:11:32;3.60;1.00
32348;DHT22;18821;44.800;10.326;2023-02-01T00:13:58;3.60;1.00
32348;DHT22;18821;44.800;10.326;2023-02-01T00:16:26;3.60;1.00
32348;DHT22;18821;44.800;10.326;2023-02-01T00:18:58;3.60;1.00
32348;DHT22;18821;44.800;10.326;2023-02-01T00:21:24;3.60;1.00
32348;DHT22;18821;44.800;10.326;2023-02-01T00:23:50;3.70;1.00
32348;DHT22;18821;44.800;10.326;2023-02-01T00:29:03;3.70;1.00
32348;DHT22;18821;44.800;10.326;2023-02-01T00:31:29;3.70;1.00
32348;DHT22;18821;44.800;10.326;2023-02-01T00:33:56;3.60;1.00
32348;DHT22;18821;44.800;10.326;2023-02-01T00:36:22;3.60;1.00
32348;DHT22;18821;44.800;10.326;2023-02-01T00:38:48;3.50;1.00
32348;DHT22;18821;44.800;10.326;2023-02-01T00:41:19;3.40;1.00
32348;DHT22;18821;44.800;10.326;2023-02-01T00:43:46;3.50;1.00
32348;DHT22;18821;44.800;10.326;2023-02-01T00:46:15;3.50;1.00
32348;DHT22;18821;44.800;10.326;2023-02-01T00:48:41;3.60;1.00
32348;DHT22;18821;44.800;10.326;2023-02-01T00:51:13;3.60;1.00
32348;DHT22;18821;44.800;10.326;2023-02-01T00:53:40;3.60;1.00
32348;DHT22;18821;44.800;10.326;2023-02-01T00:56:06;3.70;1.00
32348;DHT22;18821;44.800;10.326;2023-02-01T00:58:33;3.60;1.00
32348;DHT22;18821;44.800;10.326;2023-02-01T01:03:30;3.70;1.00
32348;DHT22;18821;44.800;10.326;2023-02-01T01:06:00;3.80;1.00
32348;DHT22;18821;44.800;10.326;2023-02-01T01:08:26;3.80;1.00
32348;DHT22;18821;44.800;10.326;2023-02-01T01:10:53;3.80;1.00
32348;DHT22;18821;44.800;10.326;2023-02-01T01:13:19;3.80;1.00
32348;DHT22;18821;44.800;10.326;2023-02-01T01:15:45;3.80;1.00
32348;DHT22;18821;44.800;10.326;2023-02-01T01:18:15;3.90;1.00
32348;DHT22;18821;44.800;10.326;2023-02-01T01:20:44;3.90;1.00
32348;DHT22;18821;44.800;10.326;2023-02-01T01:23:10;3.90;1.00
32348;DHT22;18821;44.800;10.326;2023-02-01T01:25:39;3.90;1.00
32348;DHT22;18821;44.800;10.326;2023-02-01T01:28:07;3.90;1.00
32348;DHT22;18821;44.800;10.326;2023-02-01T01:30:34;3.80;1.00
32348;DHT22;18821;44.800;10.326;2023-02-01T01:33:00;3.80;1.00
32348;DHT22;18821;44.800;10.326;2023-02-01T01:35:29;3.70;1.00
32348;DHT22;18821;44.800;10.326;2023-02-01T01:37:55;3.70;1.00
32348;DHT22;18821;44.800;10.326;2023-02-01T01:40:22;3.70;1.00
32348;DHT22;18821;44.800;10.326;2023-02-01T01:42:48;3.70;1.00
32348;DHT22;18821;44.800;10.326;2023-02-01T01:45:30;3.60;1.00
32348;DHT22;18821;44.800;10.326;2023-02-01T01:48:09;3.50;1.00
32348;DHT22;18821;44.800;10.326;2023-02-01T01:50:42;3.50;1.00
32348;DHT22;18821;44.800;10.326;2023-02-01T01:53:11;3.50;1.00
32348;DHT22;18821;44.800;10.326;2023-02-01T01:55:43;3.50;1.00
32348;DHT22;18821;44.800;10.326;2023-02-01T01:58:13;3.40;1.00
32348;DHT22;18821;44.800;10.326;2023-02-01T02:00:41;3.50;1.00
32348;DHT22;18821;44.800;10.326;2023-02-01T02:05:38;3.40;1.00
32348;DHT22;18821;44.800;10.326;2023-02-01T02:08:04;3.40;1.00
32348;DHT22;18821;44.800;10.326;2023-02-01T02:10:31;3.30;1.00
32348;DHT22;18821;44.800;10.326;2023-02-01T02:13:17;3.20;1.00
32348;DHT22;18821;44.800;10.326;2023-02-01T02:16:34;3.30;1.00
32348;DHT22;18821;44.800;10.326;2023-02-01T02:29:22;3.00;1.00
32348;DHT22;18821;44.800;10.326;2023-02-01T02:32:23;3.00;1.00
32348;DHT22;18821;44.800;10.326;2023-02-01T02:40:31;2.70;1.00
32348;DHT22;18821;44.800;10.326;2023-02-01T02:43:23;2.70;1.00
32348;DHT22;18821;44.800;10.326;2023-02-01T02:46:25;2.70;1.00
32348;DHT22;18821;44.800;10.326;2023-02-01T02:49:19;2.70;1.00
32348;DHT22;18821;44.800;10.326;2023-02-01T02:51:56;2.70;1.00
32348;DHT22;18821;44.800;10.326;2023-02-01T02:54:46;2.70;1.00
32348;DHT22;18821;44.800;10.326;2023-02-01T02:57:28;2.70;1.00
32348;DHT22;18821;44.800;10.326;2023-02-01T03:00:18;2.70;1.00
32348;DHT22;18821;44.800;10.326;2023-02-01T03:03:04;2.70;1.00
32348;DHT22;18821;44.800;10.326;2023-02-01T03:05:49;2.70;1.00
32348;DHT22;18821;44.800;10.326;2023-02-01T03:08:24;2.70;1.00
32348;DHT22;18821;44.800;10.326;2023-02-01T03:11:09;2.80;1.00
32348;DHT22;18821;44.800;10.326;2023-02-01T03:13:56;2.80;1.00
32348;DHT22;18821;44.800;10.326;2023-02-01T03:16:50;2.70;1.00
32348;DHT22;18821;44.800;10.326;2023-02-01T03:19:35;2.70;1.00
32348;DHT22;18821;44.800;10.326;2023-02-01T03:22:06;2.60;1.00
32348;DHT22;18821;44.800;10.326;2023-02-01T03:27:24;2.60;1.00
32348;DHT22;18821;44.800;10.326;2023-02-01T03:29:59;2.70;1.00
32348;DHT22;18821;44.800;10.326;2023-02-01T03:32:28;2.60;1.00
32348;DHT22;18821;44.800;10.326;2023-02-01T03:34:54;2.60;1.00
32348;DHT22;18821;44.800;10.326;2023-02-01T03:37:26;2.60;1.00
32348;DHT22;18821;44.800;10.326;2023-02-01T03:39:56;2.50;1.00
32348;DHT22;18821;44.800;10.326;2023-02-01T03:42:44;2.50;1.00
32348;DHT22;18821;44.800;10.326;2023-02-01T03:45:23;2.50;1.00
32348;DHT22;18821;44.800;10.326;2023-02-01T03:47:53;2.50;1.00
32348;DHT22;18821;44.800;10.326;2023-02-01T03:50:23;2.50;1.00
32348;DHT22;18821;44.800;10.326;2023-02-01T03:52:56;2.50;1.00
32348;DHT22;18821;44.800;10.326;2023-02-01T03:55:25;2.50;1.00
32348;DHT22;18821;44.800;10.326;2023-02-01T04:00:34;2.60;1.00
32348;DHT22;18821;44.800;10.326;2023-02-01T04:03:00;2.60;1.00
32348;DHT22;18821;44.800;10.326;2023-02-01T04:05:27;2.60;1.00
32348;DHT22;18821;44.800;10.326;2023-02-01T04:07:59;2.60;1.00
32348;DHT22;18821;44.800;10.326;2023-02-01T04:10:25;2.60;1.00
32348;DHT22;18821;44.800;10.326;2023-02-01T04:12:51;2.60;1.00
32348;DHT22;18821;44.800;10.326;2023-02-01T04:15:17;2.50;1.00
32348;DHT22;18821;44.800;10.326;2023-02-01T04:17:44;2.50;1.00
32348;DHT22;18821;44.800;10.326;2023-02-01T04:20:11;2.50;1.00
32348;DHT22;18821;44.800;10.326;2023-02-01T04:22:37;2.50;1.00
32348;DHT22;18821;44.800;10.326;2023-02-01T04:25:03;2.50;1.00
32348;DHT22;18821;44.800;10.326;2023-02-01T04:27:31;2.50;1.00
32348;DHT22;18821;44.800;10.326;2023-02-01T04:29:57;2.50;1.00
32348;DHT22;18821;44.800;10.326;2023-02-01T04:32:23;2.50;1.00
32348;DHT22;18821;44.800;10.326;2023-02-01T04:34:49;2.50;1.00
32348;DHT22;18821;44.800;10.326;2023-02-01T04:37:15;2.50;1.00
32348;DHT22;18821;44.800;10.326;2023-02-01T04:39:41;2.50;1.00
32348;DHT22;18821;44.800;10.326;2023-02-01T04:42:07;2.50;1.00
32348;DHT22;18821;44.800;10.326;2023-02-01T04:44:34;2.50;1.00
32348;DHT22;18821;44.800;10.326;2023-02-01T04:47:02;2.50;1.00
32348;DHT22;18821;44.800;10.326;2023-02-01T04:49:28;2.50;1.00
32348;DHT22;18821;44.800;10.326;2023-02-01T04:51:54;2.50;1.00
32348;DHT22;18821;44.800;10.326;2023-02-01T04:54:20;2.40;1.00
32348;DHT22;18821;44.800;10.326;2023-02-01T04:56:46;2.50;1.00
32348;DHT22;18821;44.800;10.326;2023-02-01T04:59:12;2.50;1.00
32348;DHT22;18821;44.800;10.326;2023-02-01T05:01:38;2.40;1.00
32348;DHT22;18821;44.800;10.326;2023-02-01T05:04:04;2.50;1.00
32348;DHT22;18821;44.800;10.326;2023-02-01T05:06:30;2.50;1.00
32348;DHT22;18821;44.800;10.326;2023-02-01T05:08:56;2.40;1.00
32348;DHT22;18821;44.800;10.326;2023-02-01T05:11:22;2.50;1.00
32348;DHT22;18821;44.800;10.326;2023-02-01T05:14:07;2.50;1.00
32348;DHT22;18821;44.800;10.326;2023-02-01T05:16:32;2.50;1.00
32348;DHT22;18821;44.800;10.326;2023-02-01T05:18:58;2.60;1.00
32348;DHT22;18821;44.800;10.326;2023-02-01T05:21:25;2.60;1.00
32348;DHT22;18821;44.800;10.326;2023-02-01T05:23:51;2.60;1.00
32348;DHT22;18821;44.800;10.326;2023-02-01T05:26:36;2.60;1.00
32348;DHT22;18821;44.800;10.326;2023-02-01T05:29:03;2.60;1.00
32348;DHT22;18821;44.800;10.326;2023-02-01T05:31:29;2.60;1.00
32348;DHT22;18821;44.800;10.326;2023-02-01T05:33:55;2.60;1.00
32348;DHT22;18821;44.800;10.326;2023-02-01T05:36:21;2.60;1.00
32348;DHT22;18821;44.800;10.326;2023-02-01T05:38:47;2.60;1.00
32348;DHT22;18821;44.800;10.326;2023-02-01T05:41:13;2.50;1.00
32348;DHT22;18821;44.800;10.326;2023-02-01T05:43:39;2.60;1.00
32348;DHT22;18821;44.800;10.326;2023-02-01T05:46:05;2.60;1.00
32348;DHT22;18821;44.800;10.326;2023-02-01T05:48:31;2.50;1.00
32348;DHT22;18821;44.800;10.326;2023-02-01T05:50:57;2.60;1.00
32348;DHT22;18821;44.800;10.326;2023-02-01T05:53:23;2.60;1.00
32348;DHT22;18821;44.800;10.326;2023-02-01T05:55:49;2.50;1.00
32348;DHT22;18821;44.800;10.326;2023-02-01T05:58:15;2.50;1.00
32348;DHT22;18821;44.800;10.326;2023-02-01T06:00:41;2.50;1.00
32348;DHT22;18821;44.800;10.326;2023-02-01T06:03:07;2.50;1.00
32348;DHT22;18821;44.800;10.326;2023-02-01T06:05:33;2.50;1.00
32348;DHT22;18821;44.800;10.326;2023-02-01T06:07:59;2.50;1.00
32348;DHT22;18821;44.800;10.326;2023-02-01T06:10:25;2.50;1.00
32348;DHT22;18821;44.800;10.326;2023-02-01T06:12:51;2.40;1.00
32348;DHT22;18821;44.800;10.326;2023-02-01T06:15:18;2.50;1.00
32348;DHT22;18821;44.800;10.326;2023-02-01T06:17:45;2.50;1.00
32348;DHT22;18821;44.800;10.326;2023-02-01T06:20:13;2.50;1.00
32348;DHT22;18821;44.800;10.326;2023-02-01T06:22:39;2.40;1.00
32348;DHT22;18821;44.800;10.326;2023-02-01T06:25:07;2.40;1.00
32348;DHT22;18821;44.800;10.326;2023-02-01T06:27:33;2.40;1.00
32348;DHT22;18821;44.800;10.326;2023-02-01T06:30:00;2.40;1.00
32348;DHT22;18821;44.800;10.326;2023-02-01T06:32:26;2.40;1.00
32348;DHT22;18821;44.800;10.326;2023-02-01T06:34:52;2.40;1.00
32348;DHT22;18821;44.800;10.326;2023-02-01T06:37:19;2.40;1.00
32348;DHT22;18821;44.800;10.326;2023-02-01T06:39:45;2.30;1.00
32348;DHT22;18821;44.800;10.326;2023-02-01T06:42:12;2.40;1.00
32348;DHT22;18821;44.800;10.326;2023-02-01T06:44:38;2.30;1.00
32348;DHT22;18821;44.800;10.326;2023-02-01T06:47:04;2.40;1.00
32348;DHT22;18821;44.800;10.326;2023-02-01T06:49:30;2.40;1.00
32348;DHT22;18821;44.800;10.326;2023-02-01T06:51:56;2.30;1.00
32348;DHT22;18821;44.800;10.326;2023-02-01T06:54:22;2.40;1.00
32348;DHT22;18821;44.800;10.326;2023-02-01T06:56:48;2.40;1.00
32348;DHT22;18821;44.800;10.326;2023-02-01T06:59:17;2.50;1.00
32348;DHT22;18821;44.800;10.326;2023-02-01T07:01:43;2.50;1.00
32348;DHT22;18821;44.800;10.326;2023-02-01T07:04:11;2.60;1.00
32348;DHT22;18821;44.800;10.326;2023-02-01T07:06:38;2.60;1.00
32348;DHT22;18821;44.800;10.326;2023-02-01T07:09:04;2.60;1.00
32348;DHT22;18821;44.800;10.326;2023-02-01T07:11:29;2.60;1.00
32348;DHT22;18821;44.800;10.326;2023-02-01T07:13:56;2.80;1.00
32348;DHT22;18821;44.800;10.326;2023-02-01T07:16:22;2.80;1.00
32348;DHT22;18821;44.800;10.326;2023-02-01T07:18:50;2.90;1.00
32348;DHT22;18821;44.800;10.326;2023-02-01T07:21:16;3.00;1.00
32348;DHT22;18821;44.800;10.326;2023-02-01T07:23:42;3.00;1.00
32348;DHT22;18821;44.800;10.326;2023-02-01T07:26:11;3.10;1.00
32348;DHT22;18821;44.800;10.326;2023-02-01T07:28:38;3.10;1.00
32348;DHT22;18821;44.800;10.326;2023-02-01T07:31:06;3.20;1.00
32348;DHT22;18821;44.800;10.326;2023-02-01T07:33:33;3.20;1.00
32348;DHT22;18821;44.800;10.326;2023-02-01T07:36:01;3.40;1.00
32348;DHT22;18821;44.800;10.326;2023-02-01T07:38:28;3.40;1.00
32348;DHT22;18821;44.800;10.326;2023-02-01T07:40:59;3.50;1.00
32348;DHT22;18821;44.800;10.326;2023-02-01T07:43:26;3.60;1.00
32348;DHT22;18821;44.800;10.326;2023-02-01T07:45:53;3.70;1.00
32348;DHT22;18821;44.800;10.326;2023-02-01T07:48:20;3.80;99.90
32348;DHT22;18821;44.800;10.326;2023-02-01T07:50:46;3.90;99.90
32348;DHT22;18821;44.800;10.326;2023-02-01T07:53:12;4.00;99.90
32348;DHT22;18821;44.800;10.326;2023-02-01T07:55:39;4.10;99.90
32348;DHT22;18821;44.800;10.326;2023-02-01T07:58:05;4.30;99.90
32348;DHT22;18821;44.800;10.326;2023-02-01T08:00:31;4.40;99.90
32348;DHT22;18821;44.800;10.326;2023-02-01T08:03:17;4.50;99.90
32348;DHT22;18821;44.800;10.326;2023-02-01T08:05:43;4.60;99.90
32348;DHT22;18821;44.800;10.326;2023-02-01T08:08:12;4.70;99.90
32348;DHT22;18821;44.800;10.326;2023-02-01T08:10:38;4.80;99.90
32348;DHT22;18821;44.800;10.326;2023-02-01T08:13:04;4.90;99.90
32348;DHT22;18821;44.800;10.326;2023-02-01T08:15:30;5.10;99.90
32348;DHT22;18821;44.800;10.326;2023-02-01T08:17:56;5.20;99.90
32348;DHT22;18821;44.800;10.326;2023-02-01T08:20:24;5.20;92.50
32348;DHT22;18821;44.800;10.326;2023-02-01T08:22:51;5.40;1.00
32348;DHT22;18821;44.800;10.326;2023-02-01T08:25:17;5.40;1.00
32348;DHT22;18821;44.800;10.326;2023-02-01T08:27:44;5.50;1.00
32348;DHT22;18821;44.800;10.326;2023-02-01T08:30:10;5.60;1.00
32348;DHT22;18821;44.800;10.326;2023-02-01T08:32:37;5.70;1.00
32348;DHT22;18821;44.800;10.326;2023-02-01T08:35:06;5.70;1.00
32348;DHT22;18821;44.800;10.326;2023-02-01T08:37:32;5.80;1.00
32348;DHT22;18821;44.800;10.326;2023-02-01T08:39:58;5.80;1.00
32348;DHT22;18821;44.800;10.326;2023-02-01T08:42:24;5.80;69.30
32348;DHT22;18821;44.800;10.326;2023-02-01T08:45:09;5.80;92.20
32348;DHT22;18821;44.800;10.326;2023-02-01T08:47:35;5.80;99.90
32348;DHT22;18821;44.800;10.326;2023-02-01T08:50:01;5.80;99.90
32348;DHT22;18821;44.800;10.326;2023-02-01T08:52:27;5.80;1.00
32348;DHT22;18821;44.800;10.326;2023-02-01T08:54:55;5.90;1.00
32348;DHT22;18821;44.800;10.326;2023-02-01T08:57:21;6.10;1.00
32348;DHT22;18821;44.800;10.326;2023-02-01T08:59:47;6.20;1.00
32348;DHT22;18821;44.800;10.326;2023-02-01T09:02:14;6.30;1.00
32348;DHT22;18821;44.800;10.326;2023-02-01T09:04:41;6.40;1.00
32348;DHT22;18821;44.800;10.326;2023-02-01T09:07:08;6.50;1.00
32348;DHT22;18821;44.800;10.326;2023-02-01T09:09:35;6.60;1.00
32348;DHT22;18821;44.800;10.326;2023-02-01T09:12:02;6.60;1.00
32348;DHT22;18821;44.800;10.326;2023-02-01T09:14:31;6.50;1.00
32348;DHT22;18821;44.800;10.326;2023-02-01T09:16:58;6.60;1.00
32348;DHT22;18821;44.800;10.326;2023-02-01T09:19:24;6.50;1.00
32348;DHT22;18821;44.800;10.326;2023-02-01T09:21:50;6.50;1.00
32348;DHT22;18821;44.800;10.326;2023-02-01T09:24:18;6.50;1.00
32348;DHT22;18821;44.800;10.326;2023-02-01T09:26:45;6.30;1.00
32348;DHT22;18821;44.800;10.326;2023-02-01T09:29:13;6.30;1.00
32348;DHT22;18821;44.800;10.326;2023-02-01T09:31:40;6.40;1.00
32348;DHT22;18821;44.800;10.326;2023-02-01T09:34:06;6.30;1.00
32348;DHT22;18821;44.800;10.326;2023-02-01T09:36:33;6.20;1.00
32348;DHT22;18821;44.800;10.326;2023-02-01T09:39:00;6.40;1.00
32348;DHT22;18821;44.800;10.326;2023-02-01T09:47:19;7.00;1.00
32348;DHT22;18821;44.800;10.326;2023-02-01T09:49:55;7.20;1.00
32348;DHT22;18821;44.800;10.326;2023-02-01T09:52:34;7.50;1.00
32348;DHT22;18821;44.800;10.326;2023-02-01T09:55:11;7.60;1.00
32348;DHT22;18821;44.800;10.326;2023-02-01T09:57:49;7.70;1.00
32348;DHT22;18821;44.800;10.326;2023-02-01T10:00:22;7.80;1.00
32348;DHT22;18821;44.800;10.326;2023-02-01T10:02:51;8.00;1.00
32348;DHT22;18821;44.800;10.326;2023-02-01T10:08:29;8.20;99.90
32348;DHT22;18821;44.800;10.326;2023-02-01T10:11:21;7.80;1.00
32348;DHT22;18821;44.800;10.326;2023-02-01T10:14:08;7.80;1.00
32348;DHT22;18821;44.800;10.326;2023-02-01T10:16:51;8.10;1.00
32348;DHT22;18821;44.800;10.326;2023-02-01T10:19:50;8.30;1.00
32348;DHT22;18821;44.800;10.326;2023-02-01T10:27:36;8.30;99.90
32348;DHT22;18821;44.800;10.326;2023-02-01T10:30:24;8.30;99.90
32348;DHT22;18821;44.800;10.326;2023-02-01T10:32:56;8.50;1.00
32348;DHT22;18821;44.800;10.326;2023-02-01T10:35:29;8.70;99.90
32348;DHT22;18821;44.800;10.326;2023-02-01T10:38:00;8.80;99.90
32348;DHT22;18821;44.800;10.326;2023-02-01T10:40:28;8.60;99.90
32348;DHT22;18821;44.800;10.326;2023-02-01T10:42:59;8.60;99.90
32348;DHT22;18821;44.800;10.326;2023-02-01T10:45:28;8.70;99.90
32348;DHT22;18821;44.800;10.326;2023-02-01T10:47:56;8.90;99.90
32348;DHT22;18821;44.800;10.326;2023-02-01T10:53:06;9.10;99.90
32348;DHT22;18821;44.800;10.326;2023-02-01T10:58:18;9.20;99.90
32348;DHT22;18821;44.800;10.326;2023-02-01T11:01:02;9.40;99.90
32348;DHT22;18821;44.800;10.326;2023-02-01T11:03:42;9.40;99.90
32348;DHT22;18821;44.800;10.326;2023-02-01T11:08:45;9.50;99.90
32348;DHT22;18821;44.800;10.326;2023-02-01T11:11:11;9.50;99.90
32348;DHT22;18821;44.800;10.326;2023-02-01T11:13:39;9.60;99.90
32348;DHT22;18821;44.800;10.326;2023-02-01T11:16:11;9.60;99.90
32348;DHT22;18821;44.800;10.326;2023-02-01T11:18:38;9.60;99.90
32348;DHT22;18821;44.800;10.326;2023-02-01T11:21:05;9.70;99.90
32348;DHT22;18821;44.800;10.326;2023-02-01T11:23:33;9.90;99.90
32348;DHT22;18821;44.800;10.326;2023-02-01T11:26:01;10.00;99.90
32348;DHT22;18821;44.800;10.326;2023-02-01T11:28:30;10.10;99.90
32348;DHT22;18821;44.800;10.326;2023-02-01T11:31:02;10.20;99.90
32348;DHT22;18821;44.800;10.326;2023-02-01T11:33:34;10.10;99.90
32348;DHT22;18821;44.800;10.326;2023-02-01T11:36:15;9.90;99.90
32348;DHT22;18821;44.800;10.326;2023-02-01T11:38:53;10.00;99.90
32348;DHT22;18821;44.800;10.326;2023-02-01T11:41:25;9.80;99.90
32348;DHT22;18821;44.800;10.326;2023-02-01T11:43:57;9.90;99.90
32348;DHT22;18821;44.800;10.326;2023-02-01T11:46:33;10.10;99.90
32348;DHT22;18821;44.800;10.326;2023-02-01T11:49:23;10.00;99.90
32348;DHT22;18821;44.800;10.326;2023-02-01T11:57:10;10.10;99.90
32348;DHT22;18821;44.800;10.326;2023-02-01T12:08:30;10.20;99.90
32348;DHT22;18821;44.800;10.326;2023-02-01T12:11:44;10.30;99.90
32348;DHT22;18821;44.800;10.326;2023-02-01T12:21:55;10.40;99.90
32348;DHT22;18821;44.800;10.326;2023-02-01T12:37:53;10.60;87.60
32348;DHT22;18821;44.800;10.326;2023-02-01T12:51:37;11.40;1.00
32348;DHT22;18821;44.800;10.326;2023-02-01T12:57:37;11.40;99.90
32348;DHT22;18821;44.800;10.326;2023-02-01T13:05:36;11.70;1.00
32348;DHT22;18821;44.800;10.326;2023-02-01T13:08:17;11.90;99.90
32348;DHT22;18821;44.800;10.326;2023-02-01T13:10:54;11.90;77.00
32348;DHT22;18821;44.800;10.326;2023-02-01T13:13:31;11.90;1.00
32348;DHT22;18821;44.800;10.326;2023-02-01T13:16:48;12.00;1.00
32348;DHT22;18821;44.800;10.326;2023-02-01T13:19:02;12.00;99.90
32348;DHT22;18821;44.800;10.326;2023-02-01T13:21:34;11.70;1.00
32348;DHT22;18821;44.800;10.326;2023-02-01T13:24:03;11.90;99.90
32348;DHT22;18821;44.800;10.326;2023-02-01T13:26:29;12.00;99.90
32348;DHT22;18821;44.800;10.326;2023-02-01T13:29:06;12.00;42.50
32348;DHT22;18821;44.800;10.326;2023-02-01T13:32:00;12.10;1.00
32348;DHT22;18821;44.800;10.326;2023-02-01T13:42:56;11.80;1.00
32348;DHT22;18821;44.800;10.326;2023-02-01T13:45:34;11.80;99.90
32348;DHT22;18821;44.800;10.326;2023-02-01T13:48:04;11.90;99.90
32348;DHT22;18821;44.800;10.326;2023-02-01T13:50:36;11.90;99.90
32348;DHT22;18821;44.800;10.326;2023-02-01T13:55:37;12.00;2.00
32348;DHT22;18821;44.800;10.326;2023-02-01T13:58:17;12.10;1.00
32348;DHT22;18821;44.800;10.326;2023-02-01T14:00:44;12.00;1.00
32348;DHT22;18821;44.800;10.326;2023-02-01T14:03:19;12.00;1.00
32348;DHT22;18821;44.800;10.326;2023-02-01T14:08:20;11.90;99.90
32348;DHT22;18821;44.800;10.326;2023-02-01T14:10:57;11.90;99.90
32348;DHT22;18821;44.800;10.326;2023-02-01T14:21:28;11.90;1.00
32348;DHT22;18821;44.800;10.326;2023-02-01T14:24:12;12.00;99.90
32348;DHT22;18821;44.800;10.326;2023-02-01T14:26:49;12.10;1.00
32348;DHT22;18821;44.800;10.326;2023-02-01T14:29:42;12.00;1.00
32348;DHT22;18821;44.800;10.326;2023-02-01T14:32:23;12.00;1.00
32348;DHT22;18821;44.800;10.326;2023-02-01T14:34:53;12.10;1.00
32348;DHT22;18821;44.800;10.326;2023-02-01T14:37:44;12.10;1.00
32348;DHT22;18821;44.800;10.326;2023-02-01T14:40:19;12.20;1.00
32348;DHT22;18821;44.800;10.326;2023-02-01T14:42:48;12.20;1.00
32348;DHT22;18821;44.800;10.326;2023-02-01T14:58:06;12.00;1.00
32348;DHT22;18821;44.800;10.326;2023-02-01T15:00:37;12.00;96.30
32348;DHT22;18821;44.800;10.326;2023-02-01T15:06:04;11.90;99.90
32348;DHT22;18821;44.800;10.326;2023-02-01T15:08:35;11.90;99.90
32348;DHT22;18821;44.800;10.326;2023-02-01T15:11:08;11.80;1.00
32348;DHT22;18821;44.800;10.326;2023-02-01T15:13:36;11.80;1.00
32348;DHT22;18821;44.800;10.326;2023-02-01T15:16:10;11.80;1.00
32348;DHT22;18821;44.800;10.326;2023-02-01T15:18:40;11.80;1.00
32348;DHT22;18821;44.800;10.326;2023-02-01T15:21:16;11.70;1.00
32348;DHT22;18821;44.800;10.326;2023-02-01T15:23:42;11.70;84.10
32348;DHT22;18821;44.800;10.326;2023-02-01T15:26:08;11.70;99.90
32348;DHT22;18821;44.800;10.326;2023-02-01T15:28:34;11.60;99.90
32348;DHT22;18821;44.800;10.326;2023-02-01T15:31:05;11.60;99.90
32348;DHT22;18821;44.800;10.326;2023-02-01T15:33:32;11.50;1.00
32348;DHT22;18821;44.800;10.326;2023-02-01T15:36:16;11.50;1.00
32348;DHT22;18821;44.800;10.326;2023-02-01T15:38:44;11.40;99.90
32348;DHT22;18821;44.800;10.326;2023-02-01T15:41:15;11.40;99.90
32348;DHT22;18821;44.800;10.326;2023-02-01T15:44:13;11.30;99.90
32348;DHT22;18821;44.800;10.326;2023-02-01T15:46:45;11.30;99.90
32348;DHT22;18821;44.800;10.326;2023-02-01T15:49:18;11.30;99.90
32348;DHT22;18821;44.800;10.326;2023-02-01T15:51:46;11.30;1.00
32348;DHT22;18821;44.800;10.326;2023-02-01T15:54:19;11.20;1.00
32348;DHT22;18821;44.800;10.326;2023-02-01T15:56:54;11.10;1.00
32348;DHT22;18821;44.800;10.326;2023-02-01T15:59:28;11.10;72.70
32348;DHT22;18821;44.800;10.326;2023-02-01T16:01:55;11.00;99.90
32348;DHT22;18821;44.800;10.326;2023-02-01T16:04:23;11.00;99.90
32348;DHT22;18821;44.800;10.326;2023-02-01T16:06:51;10.90;99.90
32348;DHT22;18821;44.800;10.326;2023-02-01T16:09:20;10.80;99.90
32348;DHT22;18821;44.800;10.326;2023-02-01T16:11:52;10.70;99.90
32348;DHT22;18821;44.800;10.326;2023-02-01T16:14:20;10.70;99.90
32348;DHT22;18821;44.800;10.326;2023-02-01T16:16:46;10.60;99.90
32348;DHT22;18821;44.800;10.326;2023-02-01T16:19:12;10.50;99.90
32348;DHT22;18821;44.800;10.326;2023-02-01T16:21:40;10.50;99.90
32348;DHT22;18821;44.800;10.326;2023-02-01T16:24:06;10.50;99.90
32348;DHT22;18821;44.800;10.326;2023-02-01T16:26:33;10.50;99.90
32348;DHT22;18821;44.800;10.326;2023-02-01T16:28:59;10.30;1.00
32348;DHT22;18821;44.800;10.326;2023-02-01T16:31:30;10.20;1.00
32348;DHT22;18821;44.800;10.326;2023-02-01T16:33:57;10.00;1.00
32348;DHT22;18821;44.800;10.326;2023-02-01T16:36:25;9.90;1.00
32348;DHT22;18821;44.800;10.326;2023-02-01T16:38:52;9.80;1.00
32348;DHT22;18821;44.800;10.326;2023-02-01T16:41:22;9.70;1.00
32348;DHT22;18821;44.800;10.326;2023-02-01T16:43:50;9.60;1.00
32348;DHT22;18821;44.800;10.326;2023-02-01T16:46:19;9.50;1.00
32348;DHT22;18821;44.800;10.326;2023-02-01T16:48:58;9.40;1.00
32348;DHT22;18821;44.800;10.326;2023-02-01T16:51:30;9.30;1.00
32348;DHT22;18821;44.800;10.326;2023-02-01T16:53:59;9.30;1.00
32348;DHT22;18821;44.800;10.326;2023-02-01T16:56:30;9.30;1.00
32348;DHT22;18821;44.800;10.326;2023-02-01T16:59:03;9.20;1.00
32348;DHT22;18821;44.800;10.326;2023-02-01T17:01:31;9.20;1.00
32348;DHT22;18821;44.800;10.326;2023-02-01T17:03:57;9.20;1.00
32348;DHT22;18821;44.800;10.326;2023-02-01T17:06:25;9.10;1.00
32348;DHT22;18821;44.800;10.326;2023-02-01T17:08:55;9.10;1.00
32348;DHT22;18821;44.800;10.326;2023-02-01T17:11:23;8.90;1.00
32348;DHT22;18821;44.800;10.326;2023-02-01T17:13:49;8.90;1.00
32348;DHT22;18821;44.800;10.326;2023-02-01T17:16:20;8.90;1.00
32348;DHT22;18821;44.800;10.326;2023-02-01T17:21:24;8.70;1.00
32348;DHT22;18821;44.800;10.326;2023-02-01T17:23:51;8.80;1.00
32348;DHT22;18821;44.800;10.326;2023-02-01T17:26:18;8.70;1.00
32348;DHT22;18821;44.800;10.326;2023-02-01T17:28:44;8.60;1.00
32348;DHT22;18821;44.800;10.326;2023-02-01T17:31:14;8.60;1.00
32348;DHT22;18821;44.800;10.326;2023-02-01T17:33:41;8.60;1.00
32348;DHT22;18821;44.800;10.326;2023-02-01T17:36:16;8.50;1.00
32348;DHT22;18821;44.800;10.326;2023-02-01T17:38:42;8.50;1.00
32348;DHT22;18821;44.800;10.326;2023-02-01T17:41:12;8.40;1.00
32348;DHT22;18821;44.800;10.326;2023-02-01T17:43:39;8.50;1.00
32348;DHT22;18821;44.800;10.326;2023-02-01T17:46:12;8.40;1.00
32348;DHT22;18821;44.800;10.326;2023-02-01T17:48:41;8.30;1.00
32348;DHT22;18821;44.800;10.326;2023-02-01T17:51:33;8.30;1.00
32348;DHT22;18821;44.800;10.326;2023-02-01T17:54:01;8.20;1.00
32348;DHT22;18821;44.800;10.326;2023-02-01T17:56:27;8.10;1.00
32348;DHT22;18821;44.800;10.326;2023-02-01T17:58:53;8.10;1.00
32348;DHT22;18821;44.800;10.326;2023-02-01T18:01:22;8.10;1.00
32348;DHT22;18821;44.800;10.326;2023-02-01T18:03:48;8.10;1.00
32348;DHT22;18821;44.800;10.326;2023-02-01T18:06:17;8.10;1.00
32348;DHT22;18821;44.800;10.326;2023-02-01T18:08:44;8.10;1.00
32348;DHT22;18821;44.800;10.326;2023-02-01T18:11:21;8.00;1.00
32348;DHT22;18821;44.800;10.326;2023-02-01T18:13:49;8.00;1.00
32348;DHT22;18821;44.800;10.326;2023-02-01T18:18:48;7.80;1.00
32348;DHT22;18821;44.800;10.326;2023-02-01T18:21:21;7.80;1.00
32348;DHT22;18821;44.800;10.326;2023-02-01T18:23:48;7.70;1.00
32348;DHT22;18821;44.800;10.326;2023-02-01T18:26:17;7.60;1.00
32348;DHT22;18821;44.800;10.326;2023-02-01T18:28:43;7.60;1.00
32348;DHT22;18821;44.800;10.326;2023-02-01T18:31:23;7.60;1.00